createdAt,value
2023-01-20T05:02:47.331Z,0.68
2023-01-20T05:05:14.523Z,0.82
2023-01-20T05:07:41.312Z,0.78
2023-01-20T05:10:08.569Z,0.83
2023-01-20T05:12:35.147Z,0.79
2023-01-20T05:15:01.744Z,0.76
2023-01-20T05:17:28.430Z,0.93
2023-01-20T05:19:54.950Z,0.89
2023-01-20T05:22:21.485Z,0.92
2023-01-20T05:24:48.108Z,0.82
2023-01-20T05:27:14.877Z,0.93
2023-01-20T05:29:41.411Z,0.85
2023-01-20T05:32:08.035Z,0.90
2023-01-20T05:34:34.555Z,0.88
2023-01-20T05:37:01.088Z,0.83
2023-01-20T05:39:27.825Z,0.78
2023-01-20T05:41:55.159Z,0.83
2023-01-20T05:44:21.663Z,0.82
2023-01-20T05:46:48.253Z,0.96
2023-01-20T05:49:14.792Z,1.02
2023-01-20T05:51:41.315Z,1.00
2023-01-20T05:54:07.897Z,0.88
2023-01-20T05:56:34.492Z,0.85
2023-01-20T05:59:01.106Z,0.89
2023-01-20T06:01:28.077Z,1.00
2023-01-20T06:03:54.866Z,0.95
2023-01-20T06:06:21.566Z,0.99
2023-01-20T06:08:49.619Z,1.02
2023-01-20T06:11:17.884Z,1.16
2023-01-20T06:13:46.561Z,1.12
2023-01-20T06:16:13.376Z,1.10
2023-01-20T06:18:40.143Z,1.00
2023-01-20T06:21:06.740Z,1.06
2023-01-20T06:23:33.619Z,0.97
2023-01-20T06:26:05.939Z,0.97
2023-01-20T06:28:35.904Z,1.00
2023-01-20T06:31:07.912Z,1.09
2023-01-20T06:33:35.240Z,1.15
2023-01-20T06:36:02.546Z,1.04
2023-01-20T06:38:31.994Z,1.04
2023-01-20T06:41:03.240Z,0.99
2023-01-20T06:43:34.088Z,1.02
2023-01-20T06:46:02.537Z,1.20
2023-01-20T06:48:29.888Z,1.22
2023-01-20T06:51:03.631Z,1.29
2023-01-20T06:53:30.246Z,1.31
2023-01-20T06:55:57.929Z,1.20
2023-01-20T06:58:25.943Z,1.24
2023-01-20T07:00:53.241Z,1.15
2023-01-20T07:03:19.978Z,1.23
2023-01-20T07:06:01.649Z,1.33
2023-01-20T07:08:28.885Z,1.22
2023-01-20T07:10:56.344Z,1.40
2023-01-20T07:13:23.024Z,1.33
2023-01-20T07:15:49.655Z,1.23
2023-01-20T07:18:16.211Z,1.06
2023-01-20T07:20:43.858Z,1.12
2023-01-20T07:23:10.490Z,1.16
2023-01-20T07:25:38.138Z,1.20
2023-01-20T07:28:05.056Z,1.15
2023-01-20T07:30:31.746Z,1.13
2023-01-20T07:32:58.286Z,1.06
2023-01-20T07:35:24.902Z,1.30
2023-01-20T07:37:51.485Z,1.31
2023-01-20T07:40:18.535Z,1.23
2023-01-20T07:42:45.083Z,1.06
2023-01-20T07:45:11.881Z,1.13
2023-01-20T07:47:38.524Z,1.09
2023-01-20T07:50:06.526Z,1.03
2023-01-20T07:52:33.127Z,1.09
2023-01-20T07:54:59.661Z,1.12
2023-01-20T07:57:26.366Z,1.09
2023-01-20T07:59:52.906Z,1.10
2023-01-20T08:02:28.060Z,1.06
2023-01-20T08:04:54.669Z,1.00
2023-01-20T08:07:21.281Z,0.97
2023-01-20T08:09:48.628Z,1.02
2023-01-20T08:12:15.208Z,1.03
2023-01-20T08:14:41.747Z,1.00
2023-01-20T08:17:08.297Z,1.10
2023-01-20T08:19:34.821Z,1.06
2023-01-20T08:22:01.449Z,1.07
2023-01-20T08:24:28.035Z,1.04
2023-01-20T08:26:54.567Z,1.07
2023-01-20T08:29:21.124Z,1.09
2023-01-20T08:31:47.785Z,1.15
2023-01-20T08:34:14.747Z,1.10
2023-01-20T08:36:41.825Z,1.19
2023-01-20T08:39:13.113Z,1.09
2023-01-20T08:41:41.985Z,0.96
2023-01-20T08:44:09.650Z,0.97
2023-01-20T08:46:40.500Z,1.06
2023-01-20T08:49:16.937Z,1.09
2023-01-20T08:51:45.084Z,1.16
2023-01-20T08:54:11.713Z,1.12
2023-01-20T08:56:38.341Z,1.10
2023-01-20T08:59:05.218Z,1.16
2023-01-20T09:01:35.941Z,1.07
2023-01-20T09:04:06.220Z,1.16
2023-01-20T09:06:44.257Z,1.07
2023-01-20T09:09:11.733Z,1.15
2023-01-20T09:11:39.997Z,1.06
2023-01-20T09:14:06.934Z,1.02
2023-01-20T09:16:33.497Z,1.10
2023-01-20T09:19:00.127Z,1.10
2023-01-20T09:21:27.239Z,1.12
2023-01-20T09:23:53.855Z,1.03
2023-01-20T09:26:34.988Z,0.96
2023-01-20T09:29:09.501Z,0.93
2023-01-20T09:31:44.425Z,0.97
2023-01-20T09:34:15.379Z,0.89
2023-01-20T09:36:42.024Z,0.96
2023-01-20T09:39:27.761Z,0.86
2023-01-20T09:42:13.110Z,0.81
2023-01-20T09:44:50.206Z,0.96
2023-01-20T09:47:31.363Z,1.07
2023-01-20T09:50:38.043Z,1.22
2023-01-20T09:53:32.908Z,1.15
2023-01-20T09:56:18.329Z,1.16
2023-01-20T09:59:00.913Z,1.13
2023-01-20T10:01:43.151Z,1.24
2023-01-20T10:04:13.639Z,1.31
2023-01-20T10:06:51.658Z,1.34
2023-01-20T10:09:33.582Z,1.30
2023-01-20T10:12:10.993Z,1.22
2023-01-20T10:14:45.191Z,1.23
2023-01-20T10:17:23.114Z,1.43
2023-01-20T10:20:03.928Z,1.43
2023-01-20T10:22:57.523Z,1.44
2023-01-20T10:25:30.563Z,1.44
2023-01-20T10:28:08.125Z,1.59
2023-01-20T10:30:36.550Z,1.47
2023-01-20T10:33:10.730Z,1.57
2023-01-20T10:35:51.627Z,1.51
2023-01-20T10:38:26.768Z,1.51
2023-01-20T10:41:03.399Z,1.61
2023-01-20T10:43:30.753Z,1.77
2023-01-20T10:46:20.493Z,1.91
2023-01-20T10:49:09.122Z,2.22
2023-01-20T10:51:54.428Z,2.33
2023-01-20T10:54:35.853Z,2.34
2023-01-20T10:57:06.674Z,2.27
2023-01-20T10:59:44.617Z,2.15
2023-01-20T11:02:21.308Z,2.38
2023-01-20T11:04:55.187Z,2.54
2023-01-20T11:07:22.259Z,2.44
2023-01-20T11:09:49.467Z,2.56
2023-01-20T11:12:23.124Z,2.68
2023-01-20T11:14:49.814Z,2.74
2023-01-20T11:17:20.431Z,2.60
2023-01-20T11:19:58.534Z,2.60
2023-01-20T11:22:30.095Z,2.71
2023-01-20T11:25:01.604Z,2.44
2023-01-20T11:27:33.437Z,2.25
2023-01-20T11:30:03.246Z,2.27
2023-01-20T11:32:40.098Z,1.95
2023-01-20T11:35:26.185Z,1.68
2023-01-20T11:37:52.797Z,1.61
2023-01-20T11:40:27.665Z,1.44
2023-01-20T11:42:55.150Z,1.47
2023-01-20T11:45:34.973Z,1.55
2023-01-20T11:48:16.139Z,1.48
2023-01-20T11:50:43.049Z,1.43
2023-01-20T11:53:23.196Z,1.40
2023-01-20T11:55:56.109Z,1.43
2023-01-20T11:58:47.668Z,1.47
2023-01-20T12:01:23.162Z,1.51
2023-01-20T12:03:55.943Z,1.50
2023-01-20T12:06:33.781Z,1.55
2023-01-20T12:09:05.728Z,1.47
2023-01-20T12:11:38.673Z,1.41
2023-01-20T12:14:20.322Z,1.47
2023-01-20T12:17:29.844Z,1.36
2023-01-20T12:20:22.269Z,1.31
2023-01-20T12:23:08.407Z,1.29
2023-01-20T12:25:57.723Z,1.33
2023-01-20T12:28:42.483Z,1.46
2023-01-20T12:31:13.701Z,1.57
2023-01-20T12:33:44.137Z,1.78
2023-01-20T12:36:38.703Z,1.74
2023-01-20T12:39:34.109Z,1.71
2023-01-20T12:42:32.585Z,1.62
2023-01-20T12:45:15.535Z,1.55
2023-01-20T12:48:15.794Z,1.59
2023-01-20T12:50:54.391Z,1.57
2023-01-20T12:53:39.247Z,1.52
2023-01-20T12:56:21.167Z,1.39
2023-01-20T12:59:07.180Z,1.31
2023-01-20T13:01:54.284Z,1.30
2023-01-20T13:05:01.629Z,1.34
2023-01-20T13:08:05.767Z,1.23
2023-01-20T13:11:10.301Z,1.23
2023-01-20T13:13:58.177Z,1.33
2023-01-20T13:16:47.268Z,1.59
2023-01-20T13:19:19.600Z,1.62
2023-01-20T13:21:59.511Z,1.55
2023-01-20T13:24:34.925Z,1.54
2023-01-20T13:27:02.192Z,1.64
2023-01-20T13:29:43.450Z,1.71
2023-01-20T13:32:33.806Z,1.78
2023-01-20T13:35:02.466Z,1.71
2023-01-20T13:37:33.169Z,1.75
2023-01-20T13:40:00.603Z,1.74
2023-01-20T13:42:48.815Z,1.62
2023-01-20T13:45:19.437Z,1.58
2023-01-20T13:47:59.941Z,1.52
2023-01-20T13:50:31.083Z,1.52
2023-01-20T13:52:57.675Z,1.41
2023-01-20T13:55:45.140Z,1.57
2023-01-20T13:58:24.312Z,1.52
2023-01-20T14:00:57.348Z,1.62
2023-01-20T14:03:35.302Z,1.99
2023-01-20T14:06:07.029Z,1.74
2023-01-20T14:08:46.891Z,1.78
2023-01-20T14:11:15.114Z,1.78
2023-01-20T14:13:45.129Z,1.83
2023-01-20T14:16:30.044Z,1.78
2023-01-20T14:19:32.444Z,1.74
2023-01-20T14:22:03.216Z,1.75
2023-01-20T14:24:43.962Z,1.65
2023-01-20T14:27:24.627Z,1.72
2023-01-20T14:29:53.207Z,1.82
2023-01-20T14:32:26.175Z,1.81
2023-01-20T14:34:53.465Z,1.85
2023-01-20T14:37:32.000Z,1.82
2023-01-20T14:40:06.267Z,1.77
2023-01-20T14:42:33.014Z,1.78
2023-01-20T14:44:59.608Z,1.79
2023-01-20T14:47:27.355Z,1.67
2023-01-20T14:49:54.803Z,1.65
2023-01-20T14:52:28.869Z,1.71
2023-01-20T14:54:56.520Z,1.74
2023-01-20T14:57:43.450Z,1.77
2023-01-20T15:00:33.957Z,1.67
2023-01-20T15:03:12.075Z,1.68
2023-01-20T15:05:57.131Z,1.62
2023-01-20T15:09:05.235Z,1.55
2023-01-20T15:11:33.579Z,1.59
2023-01-20T15:14:04.886Z,1.55
2023-01-20T15:16:44.030Z,1.43
2023-01-20T15:19:16.743Z,1.54
2023-01-20T15:21:54.220Z,1.54
2023-01-20T15:24:31.537Z,1.54
2023-01-20T15:27:02.981Z,1.61
2023-01-20T15:29:32.515Z,1.64
2023-01-20T15:32:01.165Z,1.75
2023-01-20T15:34:30.146Z,1.71
2023-01-20T15:36:56.699Z,1.69
2023-01-20T15:39:25.992Z,1.69
2023-01-20T15:41:55.119Z,1.69
2023-01-20T15:44:22.483Z,1.69
2023-01-20T15:46:49.086Z,1.71
2023-01-20T15:49:16.046Z,1.68
2023-01-20T15:51:43.645Z,1.68
2023-01-20T15:54:11.470Z,1.71
2023-01-20T15:56:40.910Z,1.68
2023-01-20T15:59:13.120Z,1.71
2023-01-20T16:01:39.942Z,1.71
2023-01-20T16:04:06.627Z,1.78
2023-01-20T16:06:34.228Z,1.75
2023-01-20T16:09:02.440Z,1.72
2023-01-20T16:11:29.007Z,1.72
2023-01-20T16:13:55.651Z,1.78
2023-01-20T16:16:23.902Z,1.83
2023-01-20T16:18:50.535Z,1.79
2023-01-20T16:21:19.803Z,1.79
2023-01-20T16:23:46.430Z,1.81
2023-01-20T16:26:29.826Z,1.85
2023-01-20T16:28:58.044Z,1.85
2023-01-20T16:31:26.051Z,1.86
2023-01-20T16:33:53.471Z,1.94
2023-01-20T16:36:22.192Z,1.89
2023-01-20T16:38:49.951Z,1.95
2023-01-20T16:41:25.297Z,1.95
2023-01-20T16:43:53.190Z,1.96
2023-01-20T16:46:25.586Z,1.96
2023-01-20T16:48:54.313Z,2.01
2023-01-20T16:51:22.903Z,2.08
2023-01-20T16:53:49.626Z,2.03
2023-01-20T16:56:21.831Z,2.02
2023-01-20T16:58:50.107Z,2.05
2023-01-20T17:01:21.100Z,2.09
2023-01-20T17:03:48.190Z,2.08
2023-01-20T17:06:17.973Z,2.10
2023-01-20T17:08:46.174Z,2.09
2023-01-20T17:11:19.002Z,2.13
2023-01-20T17:13:45.891Z,2.15
2023-01-20T17:16:12.770Z,2.09
2023-01-20T17:18:44.708Z,2.13
2023-01-20T17:21:12.826Z,2.10
2023-01-20T17:23:39.974Z,2.06
2023-01-20T17:26:08.574Z,2.10
2023-01-20T17:28:38.758Z,2.10
2023-01-20T17:31:06.845Z,2.05
2023-01-20T17:33:34.114Z,2.12
2023-01-20T17:36:02.979Z,2.13
2023-01-20T17:38:31.241Z,2.15
2023-01-20T17:41:04.703Z,2.13
2023-01-20T17:43:36.485Z,2.15
2023-01-20T17:46:18.881Z,2.15
2023-01-20T17:48:46.386Z,2.23
2023-01-20T17:51:17.966Z,2.25
2023-01-20T17:53:44.846Z,2.22
2023-01-20T17:56:13.567Z,2.22
2023-01-20T17:58:41.610Z,2.26
2023-01-20T18:01:20.221Z,2.22
2023-01-20T18:03:49.353Z,2.17
2023-01-20T18:06:17.430Z,2.16
2023-01-20T18:08:44.813Z,2.15
2023-01-20T18:11:15.307Z,2.10
2023-01-20T18:13:44.915Z,2.10
2023-01-20T18:16:13.741Z,2.12
2023-01-20T18:18:41.415Z,2.08
2023-01-20T18:21:20.077Z,2.05
2023-01-20T18:23:48.062Z,2.05
2023-01-20T18:26:16.919Z,2.01
2023-01-20T18:28:44.008Z,2.05
2023-01-20T18:31:13.014Z,2.05
2023-01-20T18:33:44.454Z,2.06
2023-01-20T18:36:14.835Z,2.10
2023-01-20T18:38:43.194Z,2.12
2023-01-20T18:41:11.259Z,2.12
2023-01-20T18:43:38.349Z,2.08
2023-01-20T18:46:06.173Z,2.03
2023-01-20T18:48:33.066Z,2.01
2023-01-20T18:51:01.110Z,2.03
2023-01-20T18:53:28.868Z,2.03
2023-01-20T18:56:03.900Z,2.08
2023-01-20T18:58:30.873Z,2.03
2023-01-20T19:01:11.858Z,2.01
2023-01-20T19:03:39.255Z,2.10
2023-01-20T19:06:15.071Z,2.10
2023-01-20T19:08:43.529Z,2.09
2023-01-20T19:11:18.951Z,2.05
2023-01-20T19:13:48.709Z,2.06
2023-01-20T19:16:16.592Z,2.03
2023-01-20T19:18:44.863Z,2.06
2023-01-20T19:21:17.433Z,1.95
2023-01-20T19:23:44.171Z,1.85
2023-01-20T19:26:13.078Z,1.74
2023-01-20T19:28:40.399Z,1.65
2023-01-20T19:31:12.075Z,1.58
2023-01-20T19:33:39.225Z,1.51
2023-01-20T19:36:08.116Z,1.50
2023-01-20T19:38:35.489Z,1.43
2023-01-20T19:41:22.944Z,1.39
2023-01-20T19:43:57.314Z,1.36
2023-01-20T19:46:26.699Z,1.29
2023-01-20T19:48:55.164Z,1.29
2023-01-20T19:51:21.775Z,1.24
2023-01-20T19:53:50.223Z,1.22
2023-01-20T19:56:19.071Z,1.15
2023-01-20T19:58:47.692Z,1.13
2023-01-20T20:01:21.852Z,1.19
2023-01-20T20:03:49.823Z,1.10
2023-01-20T20:06:33.968Z,1.07
2023-01-20T20:09:11.069Z,1.00
2023-01-20T20:11:38.528Z,0.97
2023-01-20T20:14:07.328Z,0.97
2023-01-20T20:16:36.285Z,0.95
2023-01-20T20:19:03.514Z,0.97
2023-01-20T20:21:30.124Z,0.97
2023-01-20T20:23:59.162Z,0.89
2023-01-20T20:26:29.891Z,0.90
2023-01-20T20:28:58.259Z,0.83
2023-01-20T20:31:29.460Z,0.85
2023-01-20T20:33:57.455Z,0.81
2023-01-20T20:36:24.132Z,0.76
2023-01-20T20:38:51.629Z,0.73
2023-01-20T20:41:18.335Z,0.73
2023-01-20T20:43:45.073Z,0.71
2023-01-20T20:46:14.969Z,0.69
2023-01-20T20:48:41.772Z,0.71
2023-01-20T20:51:14.663Z,0.76
2023-01-20T20:53:41.952Z,0.69
2023-01-20T20:56:16.227Z,0.71
2023-01-20T20:58:59.996Z,0.73
2023-01-20T21:01:29.023Z,0.68
2023-01-20T21:03:57.653Z,0.68
2023-01-20T21:06:25.158Z,0.64
2023-01-20T21:08:52.070Z,0.71
2023-01-20T21:11:20.205Z,0.69
2023-01-20T21:13:49.222Z,0.66
2023-01-20T21:16:17.637Z,0.61
2023-01-20T21:18:44.189Z,0.60
2023-01-20T21:21:13.387Z,0.65
2023-01-20T21:23:43.292Z,0.62
2023-01-20T21:26:13.236Z,0.65
2023-01-20T21:28:40.814Z,0.64
2023-01-20T21:31:10.086Z,0.58
2023-01-20T21:33:38.300Z,0.57
2023-01-20T21:36:07.097Z,0.58
2023-01-20T21:38:33.776Z,0.57
2023-01-20T21:41:08.303Z,0.57
2023-01-20T21:43:55.713Z,0.52
2023-01-20T21:46:23.368Z,0.55
2023-01-20T21:49:08.810Z,0.55
2023-01-20T21:51:54.257Z,0.50
2023-01-20T21:54:20.815Z,0.51
2023-01-20T21:56:48.364Z,0.48
2023-01-20T21:59:15.112Z,0.48
2023-01-20T22:01:41.834Z,0.48
2023-01-20T22:04:09.177Z,0.50
2023-01-20T22:06:35.740Z,0.42
2023-01-20T22:09:02.309Z,0.44
2023-01-20T22:11:29.004Z,0.41
2023-01-20T22:13:58.387Z,0.38
2023-01-20T22:16:25.840Z,0.40
2023-01-20T22:18:53.836Z,0.42
2023-01-20T22:21:22.240Z,0.38
2023-01-20T22:23:49.030Z,0.48
2023-01-20T22:26:15.621Z,0.34
2023-01-20T22:28:42.688Z,0.30
2023-01-20T22:31:17.162Z,0.31
2023-01-20T22:33:43.840Z,0.28
2023-01-20T22:36:10.347Z,0.25
2023-01-20T22:38:36.939Z,0.17
2023-01-20T22:41:08.703Z,0.13
2023-01-20T22:43:37.777Z,0.09
2023-01-20T22:46:05.102Z,0.03
2023-01-20T22:48:34.792Z,0.06
2023-01-20T22:51:05.728Z,0.02
2023-01-20T22:53:32.532Z,-0.04
2023-01-20T22:56:12.042Z,-0.08
2023-01-20T22:58:39.347Z,-0.15
2023-01-20T23:01:15.614Z,-0.08
2023-01-20T23:03:42.312Z,-0.04
2023-01-20T23:06:09.629Z,-0.04
2023-01-20T23:08:36.393Z,-0.06
2023-01-20T23:11:08.180Z,0.00
2023-01-20T23:13:35.700Z,-0.01
2023-01-20T23:16:04.742Z,-0.01
2023-01-20T23:18:31.960Z,-0.06
2023-01-20T23:20:58.824Z,-0.06
2023-01-20T23:23:26.431Z,-0.10
2023-01-20T23:26:00.912Z,-0.10
2023-01-20T23:28:27.478Z,-0.15
2023-01-20T23:31:09.128Z,-0.13
